Time;durP1;ratioP1;P1;durP2;ratioP2;P2;SDS_P1;SDS_P2;PMS_P1;PMS_P2;Temp;Humidity;BMP_temperature;BMP_pressure;BME280_temperature;BME280_humidity;BME280_pressure;Samples;Min_cycle;Max_cycle;Signal;HPM_P1;HPM_P2
2022/04/16 00:00:54;;;;;;;35.63;15.27;;;;;;;-141.50;100.00;63355.56;5093667;28;20430;-79
2022/04/16 00:03:22;;;;;;;38.22;16.02;;;;;;;-141.50;100.00;63355.56;5093378;28;20044;-79
2022/04/16 00:05:53;;;;;;;39.30;16.17;;;;;;;-141.50;100.00;63355.56;5087776;28;20075;-79
2022/04/16 00:08:21;;;;;;;35.30;15.48;;;;;;;-141.50;100.00;63355.56;5090352;28;20048;-79
2022/04/16 00:10:48;;;;;;;37.42;15.68;;;;;;;-141.50;100.00;63355.56;5093256;28;20089;-80
2022/04/16 00:13:16;;;;;;;38.53;15.75;;;;;;;-141.50;100.00;63355.56;5092922;28;20048;-79
2022/04/16 00:15:44;;;;;;;36.70;15.38;;;;;;;-141.50;100.00;63355.56;5092147;28;20105;-78
2022/04/16 00:18:11;;;;;;;33.22;13.90;;;;;;;-141.50;100.00;63355.56;5094915;28;20089;-79
2022/04/16 00:20:43;;;;;;;31.23;13.95;;;;;;;-141.50;100.00;63355.56;5093273;28;20063;-79
2022/04/16 00:23:10;;;;;;;33.20;14.73;;;;;;;-141.50;100.00;63355.56;5089794;28;20063;-80
2022/04/16 00:25:36;;;;;;;36.10;14.75;;;;;;;-141.50;100.00;63355.56;5090291;28;20134;-79
2022/04/16 00:28:04;;;;;;;31.27;14.48;;;;;;;-141.50;100.00;63355.56;5090814;28;20142;-78
2022/04/16 00:30:37;;;;;;;30.70;13.60;;;;;;;-141.50;100.00;63355.56;5089450;28;20048;-77
2022/04/16 00:33:06;;;;;;;26.77;12.88;;;;;;;-141.50;100.00;63355.56;5088081;28;20040;-78
2022/04/16 00:35:32;;;;;;;26.30;12.60;;;;;;;-141.50;100.00;63355.56;5091354;28;20052;-79
2022/04/16 00:37:59;;;;;;;24.17;12.57;;;;;;;-141.50;100.00;63355.56;5088769;28;20095;-78
2022/04/16 00:40:25;;;;;;;28.30;12.27;;;;;;;-141.50;100.00;63355.56;5092102;28;20111;-82
2022/04/16 00:42:53;;;;;;;22.88;11.73;;;;;;;-141.50;100.00;63355.56;5094682;28;20093;-80
2022/04/16 00:45:19;;;;;;;28.55;12.35;;;;;;;-141.50;100.00;63355.56;5097564;28;20051;-80
2022/04/16 00:47:46;;;;;;;28.40;12.50;;;;;;;-141.50;100.00;63355.56;5100430;28;20055;-80
2022/04/16 00:50:12;;;;;;;32.45;11.50;;;;;;;-141.50;100.00;63355.56;5099459;28;20056;-80
2022/04/16 00:52:40;;;;;;;24.88;12.05;;;;;;;-141.50;100.00;63355.56;5097338;28;20048;-79
2022/04/16 00:55:08;;;;;;;25.83;11.50;;;;;;;-141.50;100.00;63355.56;5097679;28;20065;-79
2022/04/16 00:57:39;;;;;;;27.75;12.55;;;;;;;-141.50;100.00;63355.56;5099429;28;20052;-80
2022/04/16 01:00:12;;;;;;;22.92;11.27;;;;;;;-141.50;100.00;63355.56;5098539;28;20097;-79
2022/04/16 01:02:39;;;;;;;24.05;11.02;;;;;;;-141.50;100.00;63355.56;5097210;28;20048;-78
2022/04/16 01:05:07;;;;;;;26.92;10.13;;;;;;;-141.50;100.00;63355.56;5094912;28;20052;-77
2022/04/16 01:07:34;;;;;;;21.17;10.20;;;;;;;-141.50;100.00;63355.56;5095430;28;20475;-78
2022/04/16 01:10:02;;;;;;;23.33;10.55;;;;;;;-141.50;100.00;63355.56;5095254;28;20101;-79
2022/04/16 01:12:29;;;;;;;22.15;10.65;;;;;;;-141.50;100.00;63355.56;5093235;28;20121;-78
2022/04/16 01:14:57;;;;;;;19.50;9.90;;;;;;;-141.50;100.00;63355.56;5096477;28;20040;-81
2022/04/16 01:17:23;;;;;;;19.25;9.52;;;;;;;-141.50;100.00;63355.56;5092244;28;20055;-79
2022/04/16 01:19:50;;;;;;;24.88;10.45;;;;;;;-141.50;100.00;63355.56;5096490;28;20055;-79
2022/04/16 01:22:16;;;;;;;20.30;9.55;;;;;;;-141.50;100.00;63355.56;5093935;28;20462;-81
2022/04/16 01:24:48;;;;;;;21.92;10.02;;;;;;;-141.50;100.00;63355.56;5094509;28;20109;-80
2022/04/16 01:27:17;;;;;;;20.30;9.90;;;;;;;-141.50;100.00;63355.56;5098154;28;20500;-79
2022/04/16 01:29:44;;;;;;;24.25;10.85;;;;;;;-141.50;100.00;63355.56;5098164;28;20052;-79
2022/04/16 01:32:11;;;;;;;23.63;10.90;;;;;;;-141.50;100.00;63355.56;5095111;28;20048;-78
2022/04/16 01:34:37;;;;;;;23.65;10.90;;;;;;;-141.50;100.00;63355.56;5096593;28;20097;-80
2022/04/16 01:37:04;;;;;;;20.73;10.13;;;;;;;-141.50;100.00;63355.56;5093115;28;20087;-79
2022/04/16 01:39:31;;;;;;;27.30;11.20;;;;;;;-141.50;100.00;63355.56;5094987;28;20185;-80
2022/04/16 01:41:58;;;;;;;19.02;10.60;;;;;;;-141.50;100.00;63355.56;5096072;28;20660;-78
2022/04/16 01:44:25;;;;;;;22.83;10.18;;;;;;;-141.50;100.00;63355.56;5092981;28;20055;-80
2022/04/16 01:46:52;;;;;;;17.85;10.27;;;;;;;-141.50;100.00;63355.56;5090859;28;20084;-78
2022/04/16 01:49:20;;;;;;;20.90;10.45;;;;;;;-141.50;100.00;63355.56;5091728;28;20052;-78
2022/04/16 01:51:48;;;;;;;18.67;9.98;;;;;;;-141.50;100.00;63355.56;5091543;28;20048;-77
2022/04/16 01:54:15;;;;;;;19.80;10.48;;;;;;;-141.50;100.00;63355.56;5094037;28;20044;-78
2022/04/16 01:56:41;;;;;;;17.90;9.40;;;;;;;-141.50;100.00;63355.56;5104377;28;20048;-78
2022/04/16 01:59:08;;;;;;;18.58;10.13;;;;;;;-141.50;100.00;63355.56;5105600;28;20098;-78
2022/04/16 02:01:35;;;;;;;17.90;9.32;;;;;;;-141.50;100.00;63355.56;5102212;28;20048;-78
2022/04/16 02:04:02;;;;;;;18.95;9.85;;;;;;;-141.50;100.00;63355.56;5094625;28;20048;-79
2022/04/16 02:06:29;;;;;;;16.30;9.52;;;;;;;-141.50;100.00;63355.56;5096762;28;20090;-80
2022/04/16 02:08:56;;;;;;;15.30;8.85;;;;;;;-141.50;100.00;63355.56;5098712;28;20098;-79
2022/04/16 02:11:22;;;;;;;18.15;9.70;;;;;;;-141.50;100.00;63355.56;5097501;28;20079;-79
2022/04/16 02:13:49;;;;;;;14.93;8.50;;;;;;;-141.50;100.00;63355.56;5097915;28;20094;-79
2022/04/16 02:16:15;;;;;;;20.52;8.75;;;;;;;-141.50;100.00;63355.56;5095952;28;20106;-79
2022/04/16 02:18:42;;;;;;;20.00;9.20;;;;;;;-141.50;100.00;63355.56;5094922;28;20059;-79
2022/04/16 02:21:10;;;;;;;19.92;9.35;;;;;;;-141.50;100.00;63355.56;5092247;28;20051;-79
2022/04/16 02:23:37;;;;;;;16.88;9.07;;;;;;;-141.50;100.00;63355.56;5093730;28;20763;-79
2022/04/16 02:26:07;;;;;;;20.10;9.70;;;;;;;-141.50;100.00;63355.56;5094275;28;20052;-79
2022/04/16 02:28:34;;;;;;;18.55;9.27;;;;;;;-141.50;100.00;63355.56;5095692;28;20051;-79
2022/04/16 02:31:01;;;;;;;18.33;9.27;;;;;;;-141.50;100.00;63355.56;5093738;28;20108;-78
2022/04/16 02:33:28;;;;;;;20.77;10.10;;;;;;;-141.50;100.00;63355.56;5094195;28;20384;-79
2022/04/16 02:35:54;;;;;;;17.70;9.65;;;;;;;-141.50;100.00;63355.56;5094514;28;20076;-79
2022/04/16 02:38:21;;;;;;;19.75;10.43;;;;;;;-141.50;100.00;63355.56;5094013;28;20497;-79
2022/04/16 02:40:47;;;;;;;18.45;10.18;;;;;;;-141.50;100.00;63355.56;5092619;28;20147;-78
2022/04/16 02:43:14;;;;;;;18.70;10.35;;;;;;;-141.50;100.00;63355.56;5093696;28;20064;-79
2022/04/16 02:48:33;;;;;;;21.95;11.88;;;;;;;-141.50;100.00;63355.56;5083042;28;20052;-78
2022/04/16 02:50:59;;;;;;;24.10;11.77;;;;;;;-141.50;100.00;63355.56;5090267;28;20109;-79
2022/04/16 02:53:26;;;;;;;19.83;10.52;;;;;;;-141.50;100.00;63355.56;5089726;28;20652;-79
2022/04/16 02:55:56;;;;;;;21.65;11.82;;;;;;;-141.50;100.00;63355.56;5092232;28;20087;-79
2022/04/16 02:58:23;;;;;;;23.75;11.93;;;;;;;-141.50;100.00;63355.56;5091105;28;20540;-79
2022/04/16 03:00:49;;;;;;;20.55;12.25;;;;;;;-141.50;100.00;63355.56;5089830;28;20059;-79
2022/04/16 03:03:16;;;;;;;20.75;11.48;;;;;;;-141.50;100.00;63355.56;5092498;28;20123;-78
2022/04/16 03:05:43;;;;;;;23.75;12.35;;;;;;;-141.50;100.00;63355.56;5093789;28;20089;-79
2022/04/16 03:08:12;;;;;;;22.85;12.75;;;;;;;-141.50;100.00;63355.56;5092685;28;20138;-79
2022/04/16 03:10:39;;;;;;;23.52;12.63;;;;;;;-141.50;100.00;63355.56;5091171;28;20048;-78
2022/04/16 03:13:06;;;;;;;27.38;13.10;;;;;;;-141.50;100.00;63355.56;5095830;28;20052;-81
2022/04/16 03:18:19;;;;;;;22.50;12.25;;;;;;;-141.50;100.00;63355.56;5093183;28;20044;-82
2022/04/16 03:20:45;;;;;;;25.95;11.70;;;;;;;-141.50;100.00;63355.56;5091910;28;20357;-79
2022/04/16 03:23:12;;;;;;;23.10;11.48;;;;;;;-141.50;100.00;63355.56;5092046;28;20071;-79
2022/04/16 03:25:48;;;;;;;22.52;11.45;;;;;;;-141.50;100.00;63355.56;5092794;28;20686;-78
2022/04/16 03:28:15;;;;;;;24.00;10.45;;;;;;;-141.50;100.00;63355.56;5093363;28;20135;-79
2022/04/16 03:30:44;;;;;;;19.80;10.10;;;;;;;-141.50;100.00;63355.56;5093431;28;20071;-79
2022/04/16 03:33:11;;;;;;;18.85;10.15;;;;;;;-141.50;100.00;63355.56;5093084;28;20148;-80
2022/04/16 03:35:40;;;;;;;24.20;9.65;;;;;;;-141.50;100.00;63355.56;5092631;28;20073;-78
2022/04/16 03:38:07;;;;;;;17.65;8.85;;;;;;;-141.50;100.00;63355.56;5090853;28;20466;-79
2022/04/16 03:40:33;;;;;;;17.52;7.60;;;;;;;-141.50;100.00;63355.56;5089887;28;20056;-79
2022/04/16 03:43:01;;;;;;;15.25;7.40;;;;;;;-141.50;100.00;63355.56;5104286;28;20048;-80
2022/04/16 03:45:33;;;;;;;12.50;4.97;;;;;;;-141.50;100.00;63355.56;5107735;28;20519;-80
2022/04/16 03:48:01;;;;;;;6.93;3.60;;;;;;;-141.50;100.00;63355.56;5089703;28;20101;-78
2022/04/16 03:50:29;;;;;;;12.15;4.28;;;;;;;-141.50;100.00;63355.56;5089862;28;20185;-79
2022/04/16 03:52:56;;;;;;;10.95;3.63;;;;;;;-141.50;100.00;63355.56;5091162;28;20055;-79
2022/04/16 04:00:57;;;;;;;10.52;4.05;;;;;;;-141.50;100.00;63355.56;5086563;28;20094;-78
2022/04/16 04:03:24;;;;;;;9.35;4.40;;;;;;;-141.50;100.00;63355.56;5088930;28;20074;-79
2022/04/16 04:05:58;;;;;;;9.52;4.55;;;;;;;-141.50;100.00;63355.56;5089202;28;20101;-79
2022/04/16 04:08:25;;;;;;;7.75;4.30;;;;;;;-141.50;100.00;63355.56;5089770;28;20102;-79
2022/04/16 04:10:52;;;;;;;8.35;4.18;;;;;;;-141.50;100.00;63355.56;5090770;28;20117;-78
2022/04/16 04:13:19;;;;;;;12.05;4.85;;;;;;;-141.50;100.00;63355.56;5091416;28;20079;-79
2022/04/16 04:15:46;;;;;;;8.30;4.65;;;;;;;-141.50;100.00;63355.56;5092640;28;20101;-79
2022/04/16 04:18:13;;;;;;;10.13;4.05;;;;;;;-141.50;100.00;63355.56;5091308;28;20134;-80
2022/04/16 04:20:39;;;;;;;10.10;4.20;;;;;;;-141.50;100.00;63355.56;5093036;28;20075;-79
2022/04/16 04:23:06;;;;;;;8.07;4.22;;;;;;;-141.50;100.00;63355.56;5095115;28;20055;-79
2022/04/16 04:25:32;;;;;;;12.38;4.25;;;;;;;-141.50;100.00;63355.56;5096142;28;20080;-80
2022/04/16 04:27:59;;;;;;;9.80;4.80;;;;;;;-141.50;100.00;63355.56;5094966;28;20048;-80
2022/04/16 04:30:26;;;;;;;8.02;3.70;;;;;;;-141.50;100.00;63355.56;5093651;28;20080;-81
2022/04/16 04:32:56;;;;;;;7.25;3.58;;;;;;;-141.50;100.00;63355.56;5094704;28;20051;-80
2022/04/16 04:35:24;;;;;;;8.63;3.13;;;;;;;-141.50;100.00;63355.56;5096672;28;20567;-80
2022/04/16 04:37:51;;;;;;;7.10;3.35;;;;;;;-141.50;100.00;63355.56;5094141;28;20055;-80
2022/04/16 04:40:17;;;;;;;9.35;3.53;;;;;;;-141.50;100.00;63355.56;5093972;28;20052;-79
2022/04/16 04:42:44;;;;;;;7.32;2.90;;;;;;;-141.50;100.00;63355.56;5094316;28;20055;-80
2022/04/16 04:45:13;;;;;;;10.85;3.90;;;;;;;-141.50;100.00;63355.56;5096017;28;20063;-80
2022/04/16 04:47:39;;;;;;;9.90;3.00;;;;;;;-141.50;100.00;63355.56;5091187;28;20044;-79
2022/04/16 04:50:07;;;;;;;7.05;3.17;;;;;;;-141.50;100.00;63355.56;5094050;28;20154;-80
2022/04/16 04:52:36;;;;;;;11.48;3.30;;;;;;;-141.50;100.00;63355.56;5102532;28;20052;-79
2022/04/16 04:55:07;;;;;;;5.85;3.05;;;;;;;-141.50;100.00;63355.56;5091277;28;20144;-78
2022/04/16 04:57:33;;;;;;;7.95;3.08;;;;;;;-141.50;100.00;63355.56;5092220;28;20128;-78
2022/04/16 05:00:00;;;;;;;6.05;2.85;;;;;;;-141.50;100.00;63355.56;5094462;28;20105;-78
2022/04/16 05:02:26;;;;;;;6.90;2.42;;;;;;;-141.50;100.00;63355.56;5082470;28;20052;-79
2022/04/16 05:04:56;;;;;;;9.80;2.78;;;;;;;-141.50;100.00;63355.56;5085952;28;20047;-79
2022/04/16 05:07:23;;;;;;;4.43;2.20;;;;;;;-141.50;100.00;63355.56;5094024;28;20048;-79
2022/04/16 05:09:50;;;;;;;6.70;2.03;;;;;;;-141.50;100.00;63355.56;5093159;28;20553;-79
2022/04/16 05:12:17;;;;;;;5.45;2.08;;;;;;;-141.50;100.00;63355.56;5094210;28;20155;-81
2022/04/16 05:14:43;;;;;;;5.43;2.42;;;;;;;-141.50;100.00;63355.56;5094680;28;20080;-79
2022/04/16 05:17:10;;;;;;;4.60;2.28;;;;;;;-141.50;100.00;63355.56;5094286;28;20147;-79
2022/04/16 05:19:36;;;;;;;6.45;1.80;;;;;;;-141.50;100.00;63355.56;5094870;28;20105;-79
2022/04/16 05:22:03;;;;;;;5.43;1.98;;;;;;;-141.50;100.00;63355.56;5093445;28;20079;-79
2022/04/16 05:24:30;;;;;;;4.05;1.80;;;;;;;-141.50;100.00;63355.56;5095456;28;20071;-79
2022/04/16 05:26:56;;;;;;;7.65;2.42;;;;;;;-141.50;100.00;63355.56;5093090;28;20052;-78
2022/04/16 05:29:24;;;;;;;9.00;2.00;;;;;;;-141.50;100.00;63355.56;5092884;28;20051;-79
2022/04/16 05:31:51;;;;;;;9.60;2.00;;;;;;;-141.50;100.00;63355.56;5091773;28;20052;-79
2022/04/16 05:34:18;;;;;;;5.50;2.08;;;;;;;-141.50;100.00;63355.56;5093146;28;20094;-79
2022/04/16 05:36:49;;;;;;;10.75;2.20;;;;;;;-141.50;100.00;63355.56;5098921;28;20221;-79
2022/04/16 05:39:17;;;;;;;7.45;1.73;;;;;;;-141.50;100.00;63355.56;5098199;28;20052;-78
2022/04/16 05:41:43;;;;;;;5.50;2.13;;;;;;;-141.50;100.00;63355.56;5103891;28;20105;-79
2022/04/16 05:44:10;;;;;;;4.55;1.52;;;;;;;-141.50;100.00;63355.56;5096024;28;20052;-81
2022/04/16 05:46:37;;;;;;;7.15;2.55;;;;;;;-141.50;100.00;63355.56;5095240;28;20068;-80
2022/04/16 05:49:03;;;;;;;7.78;1.83;;;;;;;-141.50;100.00;63355.56;5094775;28;20143;-79
2022/04/16 05:51:31;;;;;;;7.55;1.67;;;;;;;-141.50;100.00;63355.56;5087693;28;20127;-80
2022/04/16 05:54:00;;;;;;;6.53;2.25;;;;;;;-141.50;100.00;63355.56;5071705;28;20064;-79
2022/04/16 05:56:26;;;;;;;2.72;1.30;;;;;;;-141.50;100.00;63355.56;5074157;28;20119;-80
2022/04/16 05:58:53;;;;;;;4.25;1.95;;;;;;;-141.50;100.00;63355.56;5084383;28;20056;-79
2022/04/16 06:01:20;;;;;;;6.53;1.55;;;;;;;-141.50;100.00;63355.56;5083829;28;20048;-80
2022/04/16 06:03:46;;;;;;;6.40;1.73;;;;;;;-141.50;100.00;63355.56;5091150;28;20048;-80
2022/04/16 06:06:13;;;;;;;6.80;1.80;;;;;;;-141.50;100.00;63355.56;5093169;28;20052;-80
2022/04/16 06:08:40;;;;;;;5.55;1.60;;;;;;;-141.50;100.00;63355.56;5092698;28;20056;-79
2022/04/16 06:11:07;;;;;;;2.85;1.38;;;;;;;-141.50;100.00;63355.56;5090119;28;20549;-78
2022/04/16 06:13:33;;;;;;;5.78;1.45;;;;;;;-141.50;100.00;63355.56;5085526;28;20090;-80
2022/04/16 06:16:01;;;;;;;4.50;1.35;;;;;;;-141.50;100.00;63355.56;5082998;28;20075;-80
2022/04/16 06:18:27;;;;;;;8.73;2.00;;;;;;;-141.50;100.00;63355.56;5083594;28;20040;-80
2022/04/16 06:20:57;;;;;;;5.40;1.60;;;;;;;-141.50;100.00;63355.56;5086079;28;20048;-79
2022/04/16 06:23:23;;;;;;;5.20;1.60;;;;;;;-141.50;100.00;63355.56;5081585;28;20052;-78
2022/04/16 06:25:50;;;;;;;4.80;1.23;;;;;;;-141.50;100.00;63355.56;5080722;28;20520;-78
2022/04/16 06:28:16;;;;;;;5.25;1.85;;;;;;;-141.50;100.00;63355.56;5083637;28;20048;-80
2022/04/16 06:30:43;;;;;;;7.40;1.60;;;;;;;-141.50;100.00;63355.56;5079277;28;20048;-79
2022/04/16 06:33:09;;;;;;;5.63;1.73;;;;;;;-141.50;100.00;63355.56;5073654;28;20059;-79
2022/04/16 06:35:36;;;;;;;4.70;1.50;;;;;;;-141.50;100.00;63355.56;5076399;28;20098;-79
2022/04/16 06:38:02;;;;;;;7.70;1.92;;;;;;;-141.50;100.00;63355.56;5077476;28;20048;-79
2022/04/16 06:40:29;;;;;;;9.30;1.50;;;;;;;-141.50;100.00;63355.56;5078924;28;20095;-79
2022/04/16 06:42:56;;;;;;;7.13;1.60;;;;;;;-141.50;100.00;63355.56;5079275;28;20451;-79
2022/04/16 06:45:22;;;;;;;6.40;1.58;;;;;;;-141.50;100.00;63355.56;5081771;28;20044;-80
2022/04/16 06:47:49;;;;;;;9.48;1.73;;;;;;;-141.50;100.00;63355.56;5079839;28;20086;-80
2022/04/16 06:50:15;;;;;;;8.02;1.80;;;;;;;-141.50;100.00;63355.56;5084994;28;20114;-80
2022/04/16 06:52:45;;;;;;;6.03;1.75;;;;;;;-141.50;100.00;63355.56;5079217;28;20056;-81
2022/04/16 06:55:12;;;;;;;4.75;1.55;;;;;;;-141.50;100.00;63355.56;5082865;28;20151;-82
2022/04/16 06:57:39;;;;;;;6.07;1.52;;;;;;;-141.50;100.00;63355.56;5079411;28;20085;-79
2022/04/16 07:00:07;;;;;;;9.10;1.73;;;;;;;-141.50;100.00;63355.56;5080511;28;20129;-80
2022/04/16 07:02:34;;;;;;;6.35;1.50;;;;;;;-141.50;100.00;63355.56;5079241;28;20052;-81
2022/04/16 07:05:02;;;;;;;6.50;2.38;;;;;;;-141.50;100.00;63355.56;5079501;28;20151;-79
2022/04/16 07:07:31;;;;;;;3.90;1.40;;;;;;;-141.50;100.00;63355.56;5075731;28;20504;-80
2022/04/16 07:09:58;;;;;;;8.88;1.75;;;;;;;-141.50;100.00;63355.56;5082827;28;20586;-77
2022/04/16 07:12:25;;;;;;;3.42;1.60;;;;;;;-141.50;100.00;63355.56;5081876;28;20071;-80
2022/04/16 07:14:52;;;;;;;5.15;1.67;;;;;;;-141.50;100.00;63355.56;5080093;28;20079;-79
2022/04/16 07:17:19;;;;;;;5.07;1.80;;;;;;;-141.50;100.00;63355.56;5080526;28;20074;-80
2022/04/16 07:19:46;;;;;;;6.22;1.33;;;;;;;-141.50;100.00;63355.56;5081861;28;20052;-80
2022/04/16 07:22:13;;;;;;;5.15;1.63;;;;;;;-141.50;100.00;63355.56;5075865;28;20076;-78
2022/04/16 07:24:42;;;;;;;5.03;1.40;;;;;;;-141.50;100.00;63355.56;5080851;28;20048;-79
2022/04/16 07:27:09;;;;;;;3.70;1.33;;;;;;;-141.50;100.00;63355.56;5080382;28;20052;-79
2022/04/16 07:29:40;;;;;;;4.75;1.40;;;;;;;-141.50;100.00;63355.56;5080993;28;20143;-79
2022/04/16 07:32:07;;;;;;;7.22;1.67;;;;;;;-141.50;100.00;63355.56;5078827;28;20052;-80
2022/04/16 07:34:34;;;;;;;3.88;1.48;;;;;;;-141.50;100.00;63355.56;5084661;28;20051;-77
2022/04/16 07:37:00;;;;;;;7.60;1.70;;;;;;;-141.50;100.00;63355.56;5086940;28;20064;-80
2022/04/16 07:39:27;;;;;;;4.55;1.80;;;;;;;-141.50;100.00;63355.56;5080347;28;20075;-78
2022/04/16 07:41:53;;;;;;;6.07;1.42;;;;;;;-141.50;100.00;63355.56;5070362;28;20088;-81
2022/04/16 07:44:20;;;;;;;3.53;1.40;;;;;;;-141.50;100.00;63355.56;5075526;28;20052;-77
2022/04/16 07:46:46;;;;;;;7.78;1.52;;;;;;;-141.50;100.00;63355.56;5089463;28;20044;-80
2022/04/16 07:49:13;;;;;;;5.70;1.60;;;;;;;-141.50;100.00;63355.56;5081354;28;20113;-80
2022/04/16 07:51:40;;;;;;;8.15;1.70;;;;;;;-141.50;100.00;63355.56;5078983;28;20056;-81
2022/04/16 07:54:07;;;;;;;3.22;1.38;;;;;;;-141.50;100.00;63355.56;5087389;28;20051;-78
2022/04/16 07:56:34;;;;;;;4.32;1.40;;;;;;;-141.50;100.00;63355.56;5082964;28;20078;-79
2022/04/16 07:59:00;;;;;;;5.20;1.52;;;;;;;-141.50;100.00;63355.56;5081914;28;20056;-77
2022/04/16 08:01:27;;;;;;;3.33;1.30;;;;;;;-141.50;100.00;63355.56;5066846;28;20586;-78
2022/04/16 08:03:54;;;;;;;4.60;1.48;;;;;;;-141.50;100.00;63355.56;5069938;28;20423;-79
2022/04/16 08:06:21;;;;;;;3.75;1.60;;;;;;;-141.50;100.00;63355.56;5087032;28;20139;-76
2022/04/16 08:08:47;;;;;;;5.22;1.40;;;;;;;-141.50;100.00;63355.56;5085610;28;20087;-78
2022/04/16 08:11:14;;;;;;;3.45;1.30;;;;;;;-141.50;100.00;63355.56;5087050;28;20477;-78
2022/04/16 08:13:40;;;;;;;5.13;1.30;;;;;;;-141.50;100.00;63355.56;5071360;28;20492;-79
2022/04/16 08:16:07;;;;;;;6.65;1.63;;;;;;;-141.50;100.00;63355.56;5067340;28;20053;-79
2022/04/16 08:18:34;;;;;;;3.15;1.20;;;;;;;-141.50;100.00;63355.56;5073217;28;20048;-80
2022/04/16 08:21:00;;;;;;;5.72;1.80;;;;;;;-141.50;100.00;63355.56;5087693;28;20483;-79
2022/04/16 08:23:28;;;;;;;7.35;1.90;;;;;;;-141.50;100.00;63355.56;5086640;28;20465;-80
2022/04/16 08:25:55;;;;;;;4.25;2.17;;;;;;;-141.50;100.00;63355.56;5089258;28;20582;-81
2022/04/16 08:28:21;;;;;;;3.33;1.38;;;;;;;-141.50;100.00;63355.56;5092775;28;20105;-79
2022/04/16 08:30:51;;;;;;;4.00;1.50;;;;;;;-141.50;100.00;63355.56;5094429;28;20048;-81
2022/04/16 08:33:18;;;;;;;7.20;1.50;;;;;;;-141.50;100.00;63355.56;5092954;28;20131;-80
2022/04/16 08:35:45;;;;;;;7.45;1.77;;;;;;;-141.50;100.00;63355.56;5089142;28;20040;-79
2022/04/16 08:38:13;;;;;;;4.47;1.50;;;;;;;-141.50;100.00;63355.56;5089447;28;20051;-80
2022/04/16 08:40:41;;;;;;;5.10;1.70;;;;;;;-141.50;100.00;63355.56;5089576;28;20084;-80
2022/04/16 08:43:13;;;;;;;4.55;1.58;;;;;;;-141.50;100.00;63355.56;5067922;28;20049;-79
2022/04/16 08:45:40;;;;;;;4.15;1.50;;;;;;;-141.50;100.00;63355.56;5069884;28;20098;-80
2022/04/16 08:48:09;;;;;;;5.80;1.60;;;;;;;-141.50;100.00;63355.56;5073825;28;20090;-81
2022/04/16 08:50:36;;;;;;;3.70;1.55;;;;;;;-141.50;100.00;63355.56;5086888;28;20117;-82
2022/04/16 08:53:05;;;;;;;3.60;1.35;;;;;;;-141.50;100.00;63355.56;5090230;28;20135;-81
2022/04/16 08:55:33;;;;;;;5.88;1.77;;;;;;;-141.50;100.00;63355.56;5082455;28;20052;-80
2022/04/16 08:57:59;;;;;;;3.95;1.52;;;;;;;-141.50;100.00;63355.56;5071851;28;20048;-79
2022/04/16 09:00:27;;;;;;;4.47;1.83;;;;;;;-141.50;100.00;63355.56;5077439;28;20056;-79
2022/04/16 09:02:56;;;;;;;3.33;1.95;;;;;;;-141.50;100.00;63355.56;5069866;28;20078;-80
2022/04/16 09:05:27;;;;;;;5.75;2.10;;;;;;;-141.50;100.00;63355.56;5089406;28;20052;-79
2022/04/16 09:07:57;;;;;;;7.85;1.88;;;;;;;-141.50;100.00;63355.56;5100867;28;20052;-79
2022/04/16 09:10:28;;;;;;;5.80;2.42;;;;;;;-141.50;100.00;63355.56;5093605;28;20449;-78
2022/04/16 09:13:01;;;;;;;5.38;2.67;;;;;;;-141.50;100.00;63355.56;5082563;28;20048;-79
2022/04/16 09:15:28;;;;;;;4.75;2.30;;;;;;;-141.50;100.00;63355.56;5090972;28;20460;-78
2022/04/16 09:18:01;;;;;;;6.57;3.10;;;;;;;-141.50;100.00;63355.56;5094876;28;20048;-80
2022/04/16 09:20:36;;;;;;;6.80;2.08;;;;;;;-141.50;100.00;63355.56;5079220;28;20052;-79
2022/04/16 09:23:21;;;;;;;5.15;2.25;;;;;;;-141.50;100.00;63355.56;5093432;28;20051;-79
2022/04/16 09:25:49;;;;;;;7.70;2.47;;;;;;;-141.50;100.00;63355.56;5070150;28;20095;-78
2022/04/16 09:28:18;;;;;;;6.97;2.47;;;;;;;-141.50;100.00;63355.56;5075442;28;20513;-78
2022/04/16 09:31:07;;;;;;;5.97;2.80;;;;;;;-141.50;100.00;63355.56;5076386;28;20083;-79
2022/04/16 09:33:37;;;;;;;6.78;2.42;;;;;;;-141.50;100.00;63355.56;5069020;28;20052;-80
2022/04/16 09:36:04;;;;;;;3.53;1.83;;;;;;;-141.50;100.00;63355.56;5084247;28;20883;-80
2022/04/16 09:38:34;;;;;;;4.78;2.17;;;;;;;-141.50;100.00;63355.56;5090244;28;20583;-78
2022/04/16 09:41:08;;;;;;;4.60;2.22;;;;;;;-141.50;100.00;63355.56;5088239;28;20555;-77
2022/04/16 09:43:36;;;;;;;3.60;2.00;;;;;;;-141.50;100.00;63355.56;5089162;28;20101;-78
2022/04/16 09:46:13;;;;;;;5.05;2.10;;;;;;;-141.50;100.00;63355.56;5087500;28;20047;-78
2022/04/16 09:48:39;;;;;;;5.25;2.50;;;;;;;-141.50;100.00;63355.56;5082775;28;20055;-79
2022/04/16 09:51:10;;;;;;;5.18;1.98;;;;;;;-141.50;100.00;63355.56;5089725;28;20488;-78
2022/04/16 09:53:37;;;;;;;3.88;2.20;;;;;;;-141.50;100.00;63355.56;5088976;28;20132;-78
2022/04/16 09:56:10;;;;;;;4.38;2.20;;;;;;;-141.50;100.00;63355.56;5091966;28;20138;-79
2022/04/16 09:58:39;;;;;;;5.13;2.58;;;;;;;-141.50;100.00;63355.56;5085894;28;20056;-80
2022/04/16 10:01:09;;;;;;;4.03;1.90;;;;;;;-141.50;100.00;63355.56;5092757;28;20051;-81
2022/04/16 10:03:37;;;;;;;5.55;1.73;;;;;;;-141.50;100.00;63355.56;5091005;28;20182;-78
2022/04/16 10:06:04;;;;;;;3.25;1.70;;;;;;;-141.50;100.00;63355.56;5092069;28;20052;-80
2022/04/16 10:08:32;;;;;;;5.45;1.67;;;;;;;-141.50;100.00;63355.56;5088117;28;20056;-80
2022/04/16 10:11:03;;;;;;;4.32;1.45;;;;;;;-141.50;100.00;63355.56;5088769;28;20100;-80
2022/04/16 10:13:38;;;;;;;3.55;1.50;;;;;;;-141.50;100.00;63355.56;5091550;28;20101;-80
2022/04/16 10:16:13;;;;;;;3.90;1.60;;;;;;;-141.50;100.00;63355.56;5088632;28;20448;-81
2022/04/16 10:18:40;;;;;;;3.75;1.42;;;;;;;-141.50;100.00;63355.56;5087940;28;20864;-78
2022/04/16 10:21:14;;;;;;;2.95;1.58;;;;;;;-141.50;100.00;63355.56;5085621;28;20056;-80
2022/04/16 10:23:44;;;;;;;3.67;1.40;;;;;;;-141.50;100.00;63355.56;5086798;28;20059;-81
2022/04/16 10:26:16;;;;;;;3.45;1.40;;;;;;;-141.50;100.00;63355.56;5090413;28;20048;-78
2022/04/16 10:28:51;;;;;;;5.80;1.40;;;;;;;-141.50;100.00;63355.56;5095661;28;20057;-80
2022/04/16 10:31:29;;;;;;;3.22;1.63;;;;;;;-141.50;100.00;63355.56;5105302;28;20044;-77
2022/04/16 10:34:05;;;;;;;4.93;2.08;;;;;;;-141.50;100.00;63355.56;5103791;28;20048;-77
2022/04/16 10:36:39;;;;;;;2.45;1.50;;;;;;;-141.50;100.00;63355.56;5090463;28;20043;-77
2022/04/16 10:39:17;;;;;;;3.75;1.50;;;;;;;-141.50;100.00;63355.56;5068276;28;20060;-78
2022/04/16 10:42:00;;;;;;;6.40;1.60;;;;;;;-141.50;100.00;63355.56;5085608;28;20076;-77
2022/04/16 10:44:29;;;;;;;3.33;1.50;;;;;;;-141.50;100.00;63355.56;5093211;28;20055;-79
2022/04/16 10:46:58;;;;;;;4.75;1.70;;;;;;;-141.50;100.00;63355.56;5087503;28;20079;-79
2022/04/16 10:49:27;;;;;;;2.97;1.50;;;;;;;-141.50;100.00;63355.56;5088759;28;20113;-79
2022/04/16 10:51:57;;;;;;;3.47;1.92;;;;;;;-141.50;100.00;63355.56;5086625;28;20075;-80
2022/04/16 10:54:31;;;;;;;3.35;1.38;;;;;;;-141.50;100.00;63355.56;5075927;28;20057;-78
2022/04/16 10:56:59;;;;;;;4.10;1.35;;;;;;;-141.50;100.00;63355.56;5070078;28;20385;-80
2022/04/16 10:59:56;;;;;;;2.75;1.33;;;;;;;-141.50;100.00;63355.56;5076481;28;20105;-79
2022/04/16 11:02:35;;;;;;;4.25;1.55;;;;;;;-141.50;100.00;63355.56;5063065;28;20052;-79
2022/04/16 11:05:08;;;;;;;4.63;1.73;;;;;;;-141.50;100.00;63355.56;5081440;28;20055;-79
2022/04/16 11:07:37;;;;;;;6.72;1.73;;;;;;;-141.50;100.00;63355.56;5084718;28;20733;-79
2022/04/16 11:10:11;;;;;;;4.32;1.60;;;;;;;-141.50;100.00;63355.56;5086817;28;20075;-79
2022/04/16 11:12:43;;;;;;;3.03;1.80;;;;;;;-141.50;100.00;63355.56;5088887;28;20114;-80
2022/04/16 11:15:24;;;;;;;3.35;1.65;;;;;;;-141.50;100.00;63355.56;5090687;28;20082;-79
2022/04/16 11:17:58;;;;;;;5.45;1.52;;;;;;;-141.50;100.00;63355.56;5086449;28;20101;-79
2022/04/16 11:20:27;;;;;;;4.45;1.73;;;;;;;-141.50;100.00;63355.56;5087684;28;20131;-79